createdAt,value
2023-02-09T00:01:31.417Z,0.33
2023-02-09T00:04:03.149Z,0.24
2023-02-09T00:06:34.784Z,0.20
2023-02-09T00:09:06.377Z,0.25
2023-02-09T00:11:38.107Z,0.29
2023-02-09T00:14:10.983Z,0.05
2023-02-09T00:16:42.811Z,0.17
2023-02-09T00:19:15.326Z,0.61
2023-02-09T00:21:47.813Z,0.29
2023-02-09T00:24:19.506Z,0.20
2023-02-09T00:26:51.527Z,-0.01
2023-02-09T00:29:23.196Z,0.09
2023-02-09T00:31:54.855Z,0.46
2023-02-09T00:34:26.652Z,0.21
2023-02-09T00:36:59.970Z,0.36
2023-02-09T00:39:31.887Z,0.47
2023-02-09T00:42:03.528Z,0.07
2023-02-09T00:44:39.905Z,0.40
2023-02-09T00:47:11.573Z,0.37
2023-02-09T00:49:43.163Z,0.24
2023-02-09T00:52:14.745Z,0.16
2023-02-09T00:54:46.474Z,-0.22
2023-02-09T00:57:20.968Z,-0.51
2023-02-09T00:59:52.696Z,-0.48
2023-02-09T01:02:24.345Z,-0.67
2023-02-09T01:04:55.977Z,-0.31
2023-02-09T01:07:27.702Z,-0.06
2023-02-09T01:09:59.406Z,-0.07
2023-02-09T01:12:32.445Z,-0.32
2023-02-09T01:15:04.593Z,-0.37
2023-02-09T01:17:37.785Z,0.14
2023-02-09T01:20:10.669Z,0.10
2023-02-09T01:22:42.712Z,0.23
2023-02-09T01:25:14.283Z,-0.14
2023-02-09T01:27:47.014Z,-0.07
2023-02-09T01:30:18.686Z,-0.44
2023-02-09T01:32:50.274Z,0.21
2023-02-09T01:35:21.974Z,0.11
2023-02-09T01:37:53.550Z,-0.10
2023-02-09T01:40:25.369Z,-0.43
2023-02-09T01:42:56.976Z,-0.21
2023-02-09T01:45:43.877Z,-0.57
2023-02-09T01:48:20.202Z,-0.46
2023-02-09T01:50:58.101Z,-0.33
2023-02-09T01:53:29.858Z,-0.32
2023-02-09T01:56:12.097Z,-0.52
2023-02-09T01:58:46.237Z,-0.58
2023-02-09T02:01:18.540Z,-0.26
2023-02-09T02:03:53.877Z,-0.64
2023-02-09T02:06:26.087Z,-0.34
2023-02-09T02:09:11.548Z,-0.29
2023-02-09T02:11:47.780Z,-0.24
2023-02-09T02:14:37.505Z,-0.54
2023-02-09T02:17:36.770Z,-0.47
2023-02-09T02:20:30.077Z,-0.39
2023-02-09T02:23:23.503Z,-0.36
2023-02-09T02:26:32.724Z,-0.34
2023-02-09T02:29:38.869Z,-0.46
2023-02-09T02:32:20.997Z,-1.05
2023-02-09T02:35:09.371Z,-0.82
2023-02-09T02:37:49.154Z,-0.64
2023-02-09T02:40:29.292Z,-0.78
2023-02-09T02:43:09.990Z,-0.75
2023-02-09T02:45:51.129Z,-0.27
2023-02-09T02:48:25.604Z,-0.37
2023-02-09T02:51:20.329Z,-0.37
2023-02-09T02:53:57.926Z,-0.72
2023-02-09T02:56:46.952Z,-0.85
2023-02-09T02:59:26.922Z,-0.69
2023-02-09T03:02:06.198Z,-0.62
2023-02-09T03:04:40.790Z,-0.57
2023-02-09T03:07:12.578Z,-0.57
2023-02-09T03:09:53.061Z,-0.19
2023-02-09T03:12:39.754Z,-0.30
2023-02-09T03:15:29.907Z,-0.73
2023-02-09T03:18:19.618Z,-0.68
2023-02-09T03:20:56.814Z,-0.96
2023-02-09T03:23:51.340Z,-0.87
2023-02-09T03:26:31.487Z,-0.38
2023-02-09T03:29:04.479Z,-0.53
2023-02-09T03:31:38.320Z,-0.83
2023-02-09T03:34:10.506Z,-0.79
2023-02-09T03:36:43.333Z,-0.69
2023-02-09T03:39:14.949Z,-0.78
2023-02-09T03:41:46.564Z,-0.93
2023-02-09T03:44:18.204Z,-0.85
2023-02-09T03:46:49.867Z,-0.69
2023-02-09T03:49:22.926Z,-0.91
2023-02-09T03:51:54.837Z,-0.45
2023-02-09T03:54:28.412Z,-0.51
2023-02-09T03:57:01.362Z,-0.49
2023-02-09T03:59:33.096Z,0.12
2023-02-09T04:02:07.779Z,-0.27
2023-02-09T04:04:39.569Z,-0.14
2023-02-09T04:07:11.425Z,-0.20
2023-02-09T04:09:43.089Z,0.22
2023-02-09T04:12:14.885Z,0.23
2023-02-09T04:14:46.505Z,0.38
2023-02-09T04:17:18.160Z,0.45
2023-02-09T04:19:49.758Z,0.46
2023-02-09T04:22:21.328Z,0.39
2023-02-09T04:24:52.951Z,0.00
2023-02-09T04:27:24.648Z,-0.15
2023-02-09T04:29:56.186Z,0.10
2023-02-09T04:32:27.775Z,0.14
2023-02-09T04:34:59.358Z,0.56
2023-02-09T04:37:30.961Z,0.31
2023-02-09T04:40:02.793Z,0.22
2023-02-09T04:42:34.538Z,0.17
2023-02-09T04:45:06.978Z,-0.12
2023-02-09T04:47:38.706Z,0.14
2023-02-09T04:50:11.029Z,0.38
2023-02-09T04:52:42.614Z,0.47
2023-02-09T04:55:14.185Z,0.30
2023-02-09T04:57:45.790Z,0.43
2023-02-09T05:00:17.825Z,0.26
2023-02-09T05:02:49.446Z,0.63
2023-02-09T05:05:21.135Z,0.63
2023-02-09T05:07:53.000Z,0.65
2023-02-09T05:10:24.716Z,0.50
2023-02-09T05:12:56.300Z,0.51
2023-02-09T05:15:27.938Z,0.66
2023-02-09T05:17:59.613Z,0.65
2023-02-09T05:20:31.177Z,0.42
2023-02-09T05:23:03.354Z,0.59
2023-02-09T05:25:35.119Z,0.37
2023-02-09T05:28:07.199Z,0.04
2023-02-09T05:30:38.801Z,0.18
2023-02-09T05:33:10.369Z,0.10
2023-02-09T05:35:42.006Z,-0.04
2023-02-09T05:38:13.656Z,0.12
2023-02-09T05:40:45.550Z,0.26
2023-02-09T05:43:17.274Z,0.09
2023-02-09T05:45:48.838Z,-0.13
2023-02-09T05:48:20.388Z,-0.26
2023-02-09T05:50:52.034Z,-0.05
2023-02-09T05:53:23.650Z,0.17
2023-02-09T05:55:55.258Z,0.39
2023-02-09T05:58:26.988Z,0.29
2023-02-09T06:00:58.586Z,0.17
2023-02-09T06:03:30.266Z,0.38
2023-02-09T06:06:01.995Z,0.50
2023-02-09T06:08:33.608Z,0.57
2023-02-09T06:11:05.255Z,0.82
2023-02-09T06:13:36.789Z,0.63
2023-02-09T06:16:08.494Z,0.46
2023-02-09T06:18:40.169Z,0.72
2023-02-09T06:21:12.141Z,0.65
2023-02-09T06:23:43.805Z,0.69
2023-02-09T06:26:17.826Z,0.92
2023-02-09T06:28:49.663Z,0.90
2023-02-09T06:31:21.812Z,0.80
2023-02-09T06:33:53.636Z,0.84
2023-02-09T06:36:25.336Z,0.81
2023-02-09T06:38:56.865Z,0.80
2023-02-09T06:41:28.624Z,0.86
2023-02-09T06:44:00.188Z,0.83
2023-02-09T06:46:32.581Z,0.85
2023-02-09T06:49:04.356Z,0.86
2023-02-09T06:51:36.164Z,0.89
2023-02-09T06:54:07.920Z,0.81
2023-02-09T06:56:39.568Z,0.93
2023-02-09T06:59:11.221Z,0.97
2023-02-09T07:01:42.938Z,0.84
2023-02-09T07:04:14.737Z,0.80
2023-02-09T07:06:46.382Z,1.05
2023-02-09T07:09:18.037Z,0.87
2023-02-09T07:11:49.639Z,0.92
2023-02-09T07:14:21.246Z,1.22
2023-02-09T07:16:52.976Z,1.26
2023-02-09T07:19:24.692Z,1.32
2023-02-09T07:21:56.504Z,1.53
2023-02-09T07:24:28.180Z,1.55
2023-02-09T07:27:00.036Z,1.90
2023-02-09T07:29:32.866Z,2.44
2023-02-09T07:32:06.161Z,3.50
2023-02-09T07:34:38.002Z,3.62
2023-02-09T07:37:09.669Z,4.68
2023-02-09T07:39:42.627Z,5.54
2023-02-09T07:42:14.270Z,5.59
2023-02-09T07:44:55.562Z,6.11
2023-02-09T07:47:27.194Z,6.43
2023-02-09T07:49:58.771Z,7.11
2023-02-09T07:52:30.420Z,7.37
2023-02-09T07:55:02.084Z,7.44
2023-02-09T07:57:33.737Z,8.42
2023-02-09T08:00:05.992Z,8.74
2023-02-09T08:02:46.836Z,8.71
2023-02-09T08:05:30.769Z,8.03
2023-02-09T08:08:03.195Z,9.63
2023-02-09T08:10:36.113Z,9.50
2023-02-09T08:13:08.135Z,10.03
2023-02-09T08:15:52.214Z,11.01
2023-02-09T08:18:32.350Z,11.57
2023-02-09T08:21:13.854Z,10.79
2023-02-09T08:23:52.573Z,11.94
2023-02-09T08:26:24.264Z,12.69
2023-02-09T08:28:57.308Z,12.79
2023-02-09T08:31:29.127Z,12.45
2023-02-09T08:34:00.851Z,13.44
2023-02-09T08:36:32.436Z,13.95
2023-02-09T08:39:04.133Z,13.41
2023-02-09T08:41:35.826Z,14.79
2023-02-09T08:44:07.419Z,15.68
2023-02-09T08:46:39.164Z,16.00
2023-02-09T08:49:10.865Z,15.56
2023-02-09T08:51:42.467Z,16.05
2023-02-09T08:54:14.060Z,16.32
2023-02-09T08:56:45.750Z,14.01
2023-02-09T08:59:19.774Z,14.89
2023-02-09T09:01:51.702Z,14.91
2023-02-09T09:04:23.384Z,14.65
2023-02-09T09:06:55.157Z,15.10
2023-02-09T09:09:26.767Z,15.73
2023-02-09T09:11:58.324Z,16.47
2023-02-09T09:14:29.936Z,16.96
2023-02-09T09:17:01.782Z,16.63
2023-02-09T09:19:33.467Z,17.32
2023-02-09T09:22:05.068Z,15.68
2023-02-09T09:24:36.849Z,15.94
2023-02-09T09:27:10.363Z,15.21
2023-02-09T09:29:42.027Z,17.76
2023-02-09T09:32:13.652Z,19.25
2023-02-09T09:34:45.378Z,17.75
2023-02-09T09:37:16.947Z,17.64
2023-02-09T09:39:49.127Z,17.83
2023-02-09T09:42:23.628Z,17.99
2023-02-09T09:44:56.031Z,17.53
2023-02-09T09:47:39.770Z,16.99
2023-02-09T09:50:21.352Z,15.56
2023-02-09T09:53:01.707Z,18.25
2023-02-09T09:55:34.647Z,17.88
2023-02-09T09:58:07.928Z,18.54
2023-02-09T10:00:42.514Z,16.94
2023-02-09T10:03:23.090Z,18.02
2023-02-09T10:06:01.634Z,16.31
2023-02-09T10:08:55.142Z,15.86
2023-02-09T10:11:48.443Z,17.10
2023-02-09T10:14:21.777Z,15.31
2023-02-09T10:16:54.464Z,15.74
2023-02-09T10:19:27.751Z,16.41
2023-02-09T10:21:59.773Z,17.05
2023-02-09T10:24:33.997Z,15.97
2023-02-09T10:27:19.182Z,15.45
2023-02-09T10:29:50.906Z,15.00
2023-02-09T10:32:39.803Z,16.14
2023-02-09T10:35:44.449Z,16.89
2023-02-09T10:38:19.933Z,16.40
2023-02-09T10:40:52.733Z,16.68
2023-02-09T10:43:28.039Z,17.29
2023-02-09T10:46:10.316Z,18.05
2023-02-09T10:48:45.256Z,15.97
2023-02-09T10:51:24.354Z,16.93
2023-02-09T10:53:55.920Z,16.17
2023-02-09T10:56:35.529Z,15.69
2023-02-09T10:59:22.316Z,17.52
2023-02-09T11:01:59.516Z,17.30
2023-02-09T11:04:41.060Z,15.77
2023-02-09T11:07:20.081Z,17.42
2023-02-09T11:09:52.508Z,15.72
2023-02-09T11:12:24.892Z,16.49
2023-02-09T11:14:56.503Z,15.14
2023-02-09T11:17:50.033Z,14.78
2023-02-09T11:20:36.135Z,15.94
2023-02-09T11:23:29.715Z,15.65
2023-02-09T11:26:14.064Z,15.26
2023-02-09T11:28:58.325Z,16.91
2023-02-09T11:31:42.341Z,15.10
2023-02-09T11:34:35.672Z,15.01
2023-02-09T11:37:26.070Z,15.54
2023-02-09T11:40:12.640Z,15.24
2023-02-09T11:42:56.193Z,16.54
2023-02-09T11:45:42.676Z,16.90
2023-02-09T11:48:25.775Z,17.57
2023-02-09T11:50:57.342Z,17.52
2023-02-09T11:53:46.014Z,15.38
2023-02-09T11:56:21.784Z,14.74
2023-02-09T11:59:34.172Z,16.92
2023-02-09T12:02:30.571Z,17.80
2023-02-09T12:05:03.696Z,15.50
2023-02-09T12:07:50.488Z,17.60
2023-02-09T12:10:38.282Z,15.28
2023-02-09T12:13:51.324Z,13.93
2023-02-09T12:16:30.587Z,15.49
2023-02-09T12:19:04.008Z,12.62
2023-02-09T12:21:36.264Z,13.84
2023-02-09T12:24:38.238Z,13.62
2023-02-09T12:27:26.421Z,14.22
2023-02-09T12:29:58.067Z,14.27
2023-02-09T12:32:47.973Z,15.39
2023-02-09T12:35:28.078Z,15.82
2023-02-09T12:38:17.847Z,17.70
2023-02-09T12:41:06.104Z,14.88
2023-02-09T12:43:38.537Z,15.36
2023-02-09T12:46:45.006Z,17.52
2023-02-09T12:49:18.475Z,15.30
2023-02-09T12:52:03.084Z,16.38
2023-02-09T12:54:51.243Z,15.17
2023-02-09T12:57:22.777Z,15.76
2023-02-09T12:59:54.322Z,14.12
2023-02-09T13:02:35.052Z,16.05
2023-02-09T13:05:14.073Z,16.37
2023-02-09T13:07:48.490Z,17.81
2023-02-09T13:10:52.179Z,16.45
2023-02-09T13:13:32.625Z,17.71
2023-02-09T13:16:04.284Z,16.90
2023-02-09T13:18:54.767Z,17.15
2023-02-09T13:21:35.145Z,15.88
2023-02-09T13:24:17.074Z,17.86
2023-02-09T13:26:57.387Z,18.28
2023-02-09T13:29:32.777Z,19.77
2023-02-09T13:32:17.819Z,16.20
2023-02-09T13:34:55.500Z,16.49
2023-02-09T13:37:44.363Z,15.87
2023-02-09T13:40:25.016Z,17.52
2023-02-09T13:43:15.264Z,16.52
2023-02-09T13:45:49.449Z,19.30
2023-02-09T13:48:31.916Z,17.88
2023-02-09T13:51:15.322Z,17.75
2023-02-09T13:53:59.239Z,16.23
2023-02-09T13:56:33.396Z,16.65
2023-02-09T13:59:05.120Z,14.68
2023-02-09T14:01:37.133Z,16.82
2023-02-09T14:04:31.520Z,15.18
2023-02-09T14:07:11.312Z,16.34
2023-02-09T14:09:49.262Z,15.63
2023-02-09T14:12:40.382Z,15.62
2023-02-09T14:15:15.096Z,15.40
2023-02-09T14:17:50.999Z,14.84
2023-02-09T14:20:23.781Z,14.80
2023-02-09T14:23:01.144Z,14.00
2023-02-09T14:25:32.844Z,16.64
2023-02-09T14:28:04.748Z,15.80
2023-02-09T14:30:47.242Z,16.07
2023-02-09T14:33:24.107Z,17.15
2023-02-09T14:35:58.275Z,16.96
2023-02-09T14:38:36.898Z,17.89
2023-02-09T14:41:27.659Z,16.12
2023-02-09T14:44:26.231Z,14.56
2023-02-09T14:47:00.594Z,16.14
2023-02-09T14:49:32.211Z,17.14
2023-02-09T14:52:14.086Z,16.89
2023-02-09T14:54:49.221Z,18.29
2023-02-09T14:57:25.055Z,18.11
2023-02-09T14:59:56.598Z,18.78
2023-02-09T15:02:28.270Z,16.41
2023-02-09T15:04:59.899Z,17.62
2023-02-09T15:07:35.707Z,15.64
2023-02-09T15:10:28.407Z,14.34
2023-02-09T15:13:00.701Z,11.67
2023-02-09T15:15:32.985Z,10.71
2023-02-09T15:18:04.788Z,10.68
2023-02-09T15:20:36.343Z,10.30
2023-02-09T15:23:08.808Z,9.83
2023-02-09T15:25:42.255Z,9.93
2023-02-09T15:28:25.988Z,9.85
2023-02-09T15:30:59.218Z,9.17
2023-02-09T15:33:30.870Z,8.39
2023-02-09T15:36:02.507Z,8.60
2023-02-09T15:38:34.369Z,8.51
2023-02-09T15:41:05.965Z,8.72
2023-02-09T15:43:37.537Z,8.88
2023-02-09T15:46:10.002Z,8.66
2023-02-09T15:48:41.640Z,8.69
2023-02-09T15:51:14.601Z,8.55
2023-02-09T15:53:47.477Z,8.17
2023-02-09T15:56:19.111Z,8.40
2023-02-09T15:58:51.443Z,8.60
2023-02-09T16:01:23.008Z,8.64
2023-02-09T16:03:56.723Z,8.59
2023-02-09T16:06:34.948Z,8.59
2023-02-09T16:09:11.331Z,8.44
2023-02-09T16:11:43.077Z,8.30
2023-02-09T16:14:21.679Z,7.91
2023-02-09T16:16:53.671Z,7.49
2023-02-09T16:19:25.481Z,7.26
2023-02-09T16:22:01.451Z,7.26
2023-02-09T16:24:40.105Z,7.62
2023-02-09T16:27:25.568Z,7.42
2023-02-09T16:29:58.701Z,6.96
2023-02-09T16:32:32.325Z,7.09
2023-02-09T16:35:16.219Z,7.32
2023-02-09T16:37:50.684Z,7.44
2023-02-09T16:40:31.709Z,7.48
2023-02-09T16:43:03.455Z,7.05
2023-02-09T16:45:36.032Z,6.82
2023-02-09T16:48:30.268Z,6.77
2023-02-09T16:51:02.502Z,7.07
2023-02-09T16:53:43.540Z,7.00
2023-02-09T16:56:15.648Z,6.72
2023-02-09T16:58:49.125Z,6.45
2023-02-09T17:01:23.193Z,6.36
2023-02-09T17:03:56.408Z,6.44
2023-02-09T17:06:30.054Z,6.29
2023-02-09T17:09:01.658Z,6.19
2023-02-09T17:11:33.340Z,6.05
2023-02-09T17:14:04.938Z,5.65
2023-02-09T17:16:39.794Z,5.65
2023-02-09T17:19:15.805Z,5.03
2023-02-09T17:21:47.360Z,4.94
2023-02-09T17:24:18.990Z,5.08
2023-02-09T17:26:50.565Z,5.21
2023-02-09T17:29:22.162Z,5.15
2023-02-09T17:31:54.085Z,5.13
2023-02-09T17:34:26.254Z,5.09
2023-02-09T17:36:59.679Z,4.93
2023-02-09T17:39:31.313Z,4.38
2023-02-09T17:42:05.714Z,4.90
2023-02-09T17:44:45.898Z,4.79
2023-02-09T17:47:20.211Z,4.87
2023-02-09T17:49:51.820Z,4.74
2023-02-09T17:52:23.429Z,4.79
2023-02-09T17:54:55.133Z,4.82
2023-02-09T17:57:26.848Z,4.65
2023-02-09T17:59:58.482Z,4.57
2023-02-09T18:02:30.097Z,4.53
2023-02-09T18:05:02.193Z,4.50
2023-02-09T18:07:33.793Z,4.50
2023-02-09T18:10:06.055Z,4.60
2023-02-09T18:12:37.976Z,4.75
2023-02-09T18:15:30.730Z,4.65
2023-02-09T18:18:03.519Z,4.12
2023-02-09T18:20:36.104Z,4.01
2023-02-09T18:23:08.262Z,3.74
2023-02-09T18:25:40.301Z,4.07
2023-02-09T18:28:15.008Z,4.24
2023-02-09T18:30:46.719Z,4.25
2023-02-09T18:33:18.339Z,4.25
2023-02-09T18:35:50.254Z,4.26
2023-02-09T18:38:21.869Z,4.31
2023-02-09T18:40:53.589Z,4.09
2023-02-09T18:43:25.263Z,4.20
2023-02-09T18:45:57.609Z,4.18
2023-02-09T18:48:29.230Z,3.99
2023-02-09T18:51:00.765Z,4.24
2023-02-09T18:53:32.352Z,4.08
2023-02-09T18:56:04.385Z,4.09
2023-02-09T18:58:36.000Z,3.77
2023-02-09T19:01:11.415Z,3.76
2023-02-09T19:06:58.889Z,3.87
2023-02-09T19:09:30.453Z,4.01
2023-02-09T19:12:02.685Z,4.14
2023-02-09T19:14:41.791Z,4.03
2023-02-09T19:17:16.787Z,4.15
2023-02-09T19:19:49.045Z,3.88
2023-02-09T19:22:21.571Z,4.05
2023-02-09T19:24:56.457Z,4.06
2023-02-09T19:27:28.143Z,4.09
2023-02-09T19:30:00.014Z,3.91
2023-02-09T19:32:32.086Z,3.78
2023-02-09T19:35:04.113Z,3.58
2023-02-09T19:37:35.725Z,3.61
2023-02-09T19:40:07.956Z,3.67
2023-02-09T19:42:39.610Z,3.82
2023-02-09T19:45:11.282Z,3.78
2023-02-09T19:47:42.964Z,3.82
2023-02-09T19:50:15.140Z,3.90
2023-02-09T19:52:46.875Z,3.87
2023-02-09T19:55:18.663Z,3.94
2023-02-09T19:57:50.424Z,3.99
2023-02-09T20:00:22.619Z,4.00
2023-02-09T20:02:54.429Z,3.89
2023-02-09T20:05:26.100Z,4.01
2023-02-09T20:07:57.787Z,4.08
2023-02-09T20:10:29.518Z,3.83
2023-02-09T20:13:01.192Z,3.74
2023-02-09T20:15:32.817Z,3.79
2023-02-09T20:18:04.636Z,3.83
2023-02-09T20:20:40.697Z,3.91
2023-02-09T20:23:12.420Z,3.83
2023-02-09T20:25:44.568Z,3.76
2023-02-09T20:28:16.324Z,3.88
2023-02-09T20:30:48.560Z,3.94
2023-02-09T20:33:20.416Z,3.95
2023-02-09T20:35:52.091Z,3.83
2023-02-09T20:38:23.905Z,3.96
2023-02-09T20:40:55.558Z,4.10
2023-02-09T20:43:27.345Z,4.08
2023-02-09T20:46:05.024Z,3.85
2023-02-09T20:48:36.663Z,3.95
2023-02-09T20:51:08.417Z,3.74
2023-02-09T20:53:40.067Z,3.52
2023-02-09T20:56:12.249Z,3.58
2023-02-09T20:58:44.013Z,3.78
2023-02-09T21:01:15.892Z,3.83
2023-02-09T21:03:47.546Z,3.51
2023-02-09T21:06:19.279Z,3.64
2023-02-09T21:08:51.768Z,3.66
2023-02-09T21:11:23.415Z,3.71
2023-02-09T21:13:55.032Z,3.72
2023-02-09T21:16:33.535Z,3.70
2023-02-09T21:19:05.355Z,3.81
2023-02-09T21:21:39.045Z,3.81
2023-02-09T21:24:11.526Z,3.89
2023-02-09T21:26:43.260Z,3.78
2023-02-09T21:29:15.290Z,3.71
2023-02-09T21:31:47.521Z,3.62
2023-02-09T21:34:19.143Z,3.72
2023-02-09T21:36:51.331Z,3.68
2023-02-09T21:39:23.447Z,3.64
2023-02-09T21:41:55.045Z,3.51
2023-02-09T21:44:26.666Z,3.58
2023-02-09T21:46:58.277Z,3.42
2023-02-09T21:49:30.178Z,3.52
2023-02-09T21:52:01.817Z,3.39
2023-02-09T21:54:33.479Z,3.39
2023-02-09T21:57:05.261Z,3.39
2023-02-09T21:59:36.939Z,3.50
2023-02-09T22:02:14.057Z,3.32
2023-02-09T22:04:47.092Z,3.46
2023-02-09T22:07:18.726Z,3.19
2023-02-09T22:09:50.359Z,3.32
2023-02-09T22:12:22.128Z,3.35
2023-02-09T22:14:53.800Z,3.26
2023-02-09T22:17:25.418Z,3.43
2023-02-09T22:19:57.055Z,3.39
2023-02-09T22:22:28.660Z,3.45
2023-02-09T22:25:00.194Z,3.52
2023-02-09T22:27:31.837Z,3.53
2023-02-09T22:30:03.717Z,3.62
2023-02-09T22:32:35.351Z,3.45
2023-02-09T22:35:07.257Z,3.40
2023-02-09T22:37:38.860Z,3.27
2023-02-09T22:40:10.870Z,3.22
2023-02-09T22:42:43.086Z,3.07
2023-02-09T22:45:14.755Z,3.21
2023-02-09T22:47:46.290Z,3.06
2023-02-09T22:50:17.921Z,3.29
2023-02-09T22:52:49.537Z,3.30
2023-02-09T22:55:21.056Z,3.35
2023-02-09T22:57:52.715Z,3.38
2023-02-09T23:00:24.360Z,3.24
2023-02-09T23:02:55.941Z,3.31
2023-02-09T23:05:27.507Z,3.39
2023-02-09T23:07:59.057Z,3.33
2023-02-09T23:10:30.707Z,3.46
2023-02-09T23:13:02.395Z,3.42
2023-02-09T23:15:34.089Z,3.40
2023-02-09T23:18:05.754Z,3.37
2023-02-09T23:20:37.444Z,3.46
2023-02-09T23:23:09.049Z,3.41
2023-02-09T23:25:40.619Z,3.25
2023-02-09T23:28:12.229Z,2.97
2023-02-09T23:30:43.866Z,3.00
2023-02-09T23:33:15.517Z,3.01
2023-02-09T23:35:47.369Z,3.02
2023-02-09T23:38:19.080Z,3.03
2023-02-09T23:40:50.679Z,2.80
2023-02-09T23:43:22.338Z,2.80
2023-02-09T23:45:54.132Z,2.90
2023-02-09T23:48:25.875Z,2.70
2023-02-09T23:51:05.788Z,2.59
2023-02-09T23:53:37.985Z,2.67
2023-02-09T23:56:09.869Z,2.92
2023-02-09T23:58:44.469Z,3.04
